Saint Denis — FHFO — position and weather

sailwx.info

Track history (hours):
 
Tides and Currents Weather Stations Pressure Air Temp Water Temp Dewpoint Dewpoint Depression Visibility Wind Speed Wind Dir Waves Ship Positions

Saint Denis

Last reported at 2018-Jun-12 13:35 UTC. Time now 2018-Jun-18 02:10 UTC.
Position N 51°03' E 002°22'.

Length 28 m; draft 5 m.

Type: Tug. MMSI: 228051000.

Date/timePositionNaut miles runAvg speedWind from/ knotsBaromVisibWave heightAir tempDewpointWater temp
2018-Jun-12 13:35N 51°03' E 002°22'1 7.3
2018-Jun-12 13:27N 51°03' E 002°20'1 1.6
2018-Jun-12 12:46N 51°02' E 002°22'0 0.0
2018-Jun-12 12:17N 51°02' E 002°22'0 0.0
2018-Jun-12 11:45N 51°02' E 002°22'0 0.0
2018-Jun-12 11:26N 51°02' E 002°22'0 0.0
2018-Jun-12 10:59N 51°02' E 002°22'0 0.0
2018-Jun-12 10:29N 51°02' E 002°22'0 0.0
2018-Jun-12 09:59N 51°02' E 002°22'0 0.0
2018-Jun-12 09:17N 51°02' E 002°22'0 0.0
2018-Jun-12 08:57N 51°02' E 002°22'0 0.0
2018-Jun-12 08:14N 51°02' E 002°22'0 0.0
2018-Jun-12 08:00N 51°02' E 002°22'0 0.0
2018-Jun-12 07:29N 51°02' E 002°22'0 0.0
2018-Jun-12 06:55N 51°02' E 002°22'0 0.0
2018-Jun-12 06:10N 51°02' E 002°22'0 0.0
2018-Jun-12 06:00N 51°02' E 002°22'0 0.0
2018-Jun-12 05:20N 51°02' E 002°22'0 0.0
2018-Jun-12 05:01N 51°02' E 002°22'0 0.0
2018-Jun-12 04:29N 51°02' E 002°22'0 0.0
2018-Jun-12 03:47N 51°02' E 002°22'0 0.0
2018-Jun-12 03:19N 51°02' E 002°22'0 0.0
2018-Jun-12 02:55N 51°02' E 002°22'0 0.0
2018-Jun-12 02:25N 51°02' E 002°22'0 0.0
2018-Jun-12 02:00N 51°02' E 002°22'0 0.0
2018-Jun-12 01:12N 51°02' E 002°22'0 0.0
2018-Jun-12 00:58N 51°02' E 002°22'0 0.0
2018-Jun-12 00:24N 51°02' E 002°22'0 0.0
2018-Jun-12 00:01N 51°02' E 002°22'0 0.0
2018-Jun-11 23:30N 51°02' E 002°22'0 0.0
2018-Jun-11 22:59N 51°02' E 002°22'0 0.0
2018-Jun-11 21:51N 51°02' E 002°22'0 0.0
2018-Jun-11 21:30N 51°02' E 002°22'0 0.0
2018-Jun-11 21:00N 51°02' E 002°22'0 0.0
2018-Jun-11 20:30N 51°02' E 002°22'0 0.0
2018-Jun-11 20:00N 51°02' E 002°22'0 0.0
2018-Jun-11 19:16N 51°02' E 002°22'0 0.0
2018-Jun-11 19:00N 51°02' E 002°22'0 0.0
2018-Jun-11 18:30N 51°02' E 002°22'0 0.0
2018-Jun-11 17:56N 51°02' E 002°22'0 0.0
2018-Jun-11 17:29N 51°02' E 002°22'0 0.0
2018-Jun-11 16:59N 51°02' E 002°22'0 0.0
2018-Jun-11 15:55N 51°02' E 002°22'0 0.0
2018-Jun-11 15:29N 51°02' E 002°22'0 0.0
2018-Jun-11 14:44N 51°02' E 002°22'0 0.0
2018-Jun-11 14:29N 51°02' E 002°22'0 0.3
2018-Jun-11 13:53N 51°03' E 002°22'0 0.4
2018-Jun-11 13:30N 51°03' E 002°22'0 0.6
2018-Jun-11 13:00N 51°02' E 002°22'0 0.0
2018-Jun-11 12:20N 51°02' E 002°22'0 0.0
2018-Jun-11 12:00N 51°02' E 002°22'0 0.0
2018-Jun-11 11:31N 51°02' E 002°22'0 0.0
2018-Jun-11 10:59N 51°02' E 002°22'0 0.0
2018-Jun-11 10:23N 51°02' E 002°22'0 0.0
2018-Jun-11 09:46N 51°02' E 002°22'0 0.0
2018-Jun-11 09:30N 51°02' E 002°22'1 2.9
2018-Jun-11 09:00N 51°03' E 002°20'2 2.8
2018-Jun-11 08:27N 51°02' E 002°22'  
2018-Jun-08 05:27N 51°02' E 002°22'0 0.9
2018-Jun-08 04:59N 51°03' E 002°22'5 8.2
2018-Jun-08 04:26N 51°04' E 002°15'5 9.7
2018-Jun-08 03:58N 51°03' E 002°08'7 8.8
2018-Jun-08 03:11N 51°02' E 001°57'1 8.2
2018-Jun-08 03:01N 51°02' E 001°55'4 8.2
2018-Jun-08 02:31N 51°02' E 001°48'4 7.7
2018-Jun-08 01:56N 51°01' E 001°41'125 8.5
2018-Jun-07 11:14N 50°05' W 001°15'2 9.1
2018-Jun-07 11:00N 50°04' W 001°18'4 8.7
2018-Jun-07 10:30N 50°03' W 001°24'4 8.3
2018-Jun-07 10:00N 50°01' W 001°30'4 7.7
2018-Jun-07 09:31N 50°00' W 001°36'4 7.5
2018-Jun-07 09:00N 49°59' W 001°42'4 7.1
2018-Jun-07 08:30N 49°58' W 001°47'4 6.9
2018-Jun-07 08:00N 49°58' W 001°53'133 8.8
2018-Jun-06 16:52N 48°42' W 004°39'3 8.6
2018-Jun-06 16:30N 48°40' W 004°42'4 8.5
2018-Jun-06 16:00N 48°37' W 004°46'4 8.9
2018-Jun-06 15:31N 48°33' W 004°49'4 8.6
2018-Jun-06 15:00N 48°28' W 004°50'4 8.5
2018-Jun-06 14:30N 48°24' W 004°49'4 8.1
2018-Jun-06 14:01N 48°20' W 004°48'4 8.5
2018-Jun-06 13:31N 48°19' W 004°42'510.0
2018-Jun-06 13:00N 48°21' W 004°35'4 8.2
2018-Jun-06 12:31N 48°22' W 004°29'0 1.0
2018-Jun-06 12:01N 48°23' W 004°29'0 0.0
2018-Jun-06 11:30N 48°23' W 004°29'0 0.0
2018-Jun-06 11:01N 48°23' W 004°29'0 0.0
2018-Jun-06 10:30N 48°23' W 004°29'0 0.0
2018-Jun-06 10:01N 48°23' W 004°29'0 0.0
2018-Jun-06 09:30N 48°23' W 004°29'0 0.0
2018-Jun-06 09:00N 48°23' W 004°29'0 0.0
2018-Jun-06 08:30N 48°23' W 004°29'0 0.0
2018-Jun-06 08:00N 48°23' W 004°29'0 0.0
2018-Jun-06 07:31N 48°23' W 004°29'  
Track history (hours):
 
Tides and Currents Weather Stations Pressure Air Temp Water Temp Dewpoint Dewpoint Depression Visibility Wind Speed Wind Dir Waves Ship Positions

Saint Denis

Last reported at 2018-Jun-12 13:35 UTC. Time now 2018-Jun-18 02:10 UTC.
Position N 51°03' E 002°22'.

Length 28 m; draft 5 m.

Type: Tug. MMSI: 228051000.

Date/timePositionNaut miles runAvg speedWind from/ knotsBaromVisibWave heightAir tempDewpointWater temp
2018-Jun-12 13:35N 51°03' E 002°22'1 7.3
2018-Jun-12 13:27N 51°03' E 002°20'1 1.6
2018-Jun-12 12:46N 51°02' E 002°22'0 0.0
2018-Jun-12 12:17N 51°02' E 002°22'0 0.0
2018-Jun-12 11:45N 51°02' E 002°22'0 0.0
2018-Jun-12 11:26N 51°02' E 002°22'0 0.0
2018-Jun-12 10:59N 51°02' E 002°22'0 0.0
2018-Jun-12 10:29N 51°02' E 002°22'0 0.0
2018-Jun-12 09:59N 51°02' E 002°22'0 0.0
2018-Jun-12 09:17N 51°02' E 002°22'0 0.0
2018-Jun-12 08:57N 51°02' E 002°22'0 0.0
2018-Jun-12 08:14N 51°02' E 002°22'0 0.0
2018-Jun-12 08:00N 51°02' E 002°22'0 0.0
2018-Jun-12 07:29N 51°02' E 002°22'0 0.0
2018-Jun-12 06:55N 51°02' E 002°22'0 0.0
2018-Jun-12 06:10N 51°02' E 002°22'0 0.0
2018-Jun-12 06:00N 51°02' E 002°22'0 0.0
2018-Jun-12 05:20N 51°02' E 002°22'0 0.0
2018-Jun-12 05:01N 51°02' E 002°22'0 0.0
2018-Jun-12 04:29N 51°02' E 002°22'0 0.0
2018-Jun-12 03:47N 51°02' E 002°22'0 0.0
2018-Jun-12 03:19N 51°02' E 002°22'0 0.0
2018-Jun-12 02:55N 51°02' E 002°22'0 0.0
2018-Jun-12 02:25N 51°02' E 002°22'0 0.0
2018-Jun-12 02:00N 51°02' E 002°22'0 0.0
2018-Jun-12 01:12N 51°02' E 002°22'0 0.0
2018-Jun-12 00:58N 51°02' E 002°22'0 0.0
2018-Jun-12 00:24N 51°02' E 002°22'0 0.0
2018-Jun-12 00:01N 51°02' E 002°22'0 0.0
2018-Jun-11 23:30N 51°02' E 002°22'0 0.0
2018-Jun-11 22:59N 51°02' E 002°22'0 0.0
2018-Jun-11 21:51N 51°02' E 002°22'0 0.0
2018-Jun-11 21:30N 51°02' E 002°22'0 0.0
2018-Jun-11 21:00N 51°02' E 002°22'0 0.0
2018-Jun-11 20:30N 51°02' E 002°22'0 0.0
2018-Jun-11 20:00N 51°02' E 002°22'0 0.0
2018-Jun-11 19:16N 51°02' E 002°22'0 0.0
2018-Jun-11 19:00N 51°02' E 002°22'0 0.0
2018-Jun-11 18:30N 51°02' E 002°22'0 0.0
2018-Jun-11 17:56N 51°02' E 002°22'0 0.0
2018-Jun-11 17:29N 51°02' E 002°22'0 0.0
2018-Jun-11 16:59N 51°02' E 002°22'0 0.0
2018-Jun-11 15:55N 51°02' E 002°22'0 0.0
2018-Jun-11 15:29N 51°02' E 002°22'0 0.0
2018-Jun-11 14:44N 51°02' E 002°22'0 0.0
2018-Jun-11 14:29N 51°02' E 002°22'0 0.3
2018-Jun-11 13:53N 51°03' E 002°22'0 0.4
2018-Jun-11 13:30N 51°03' E 002°22'0 0.6
2018-Jun-11 13:00N 51°02' E 002°22'0 0.0
2018-Jun-11 12:20N 51°02' E 002°22'0 0.0
2018-Jun-11 12:00N 51°02' E 002°22'0 0.0
2018-Jun-11 11:31N 51°02' E 002°22'0 0.0
2018-Jun-11 10:59N 51°02' E 002°22'0 0.0
2018-Jun-11 10:23N 51°02' E 002°22'0 0.0
2018-Jun-11 09:46N 51°02' E 002°22'0 0.0
2018-Jun-11 09:30N 51°02' E 002°22'1 2.9
2018-Jun-11 09:00N 51°03' E 002°20'2 2.8
2018-Jun-11 08:27N 51°02' E 002°22'  
2018-Jun-08 05:27N 51°02' E 002°22'0 0.9
2018-Jun-08 04:59N 51°03' E 002°22'5 8.2
2018-Jun-08 04:26N 51°04' E 002°15'5 9.7
2018-Jun-08 03:58N 51°03' E 002°08'7 8.8
2018-Jun-08 03:11N 51°02' E 001°57'1 8.2
2018-Jun-08 03:01N 51°02' E 001°55'4 8.2
2018-Jun-08 02:31N 51°02' E 001°48'4 7.7
2018-Jun-08 01:56N 51°01' E 001°41'125 8.5
2018-Jun-07 11:14N 50°05' W 001°15'2 9.1
2018-Jun-07 11:00N 50°04' W 001°18'4 8.7
2018-Jun-07 10:30N 50°03' W 001°24'4 8.3
2018-Jun-07 10:00N 50°01' W 001°30'4 7.7
2018-Jun-07 09:31N 50°00' W 001°36'4 7.5
2018-Jun-07 09:00N 49°59' W 001°42'4 7.1
2018-Jun-07 08:30N 49°58' W 001°47'4 6.9
2018-Jun-07 08:00N 49°58' W 001°53'133 8.8
2018-Jun-06 16:52N 48°42' W 004°39'3 8.6
2018-Jun-06 16:30N 48°40' W 004°42'4 8.5
2018-Jun-06 16:00N 48°37' W 004°46'4 8.9
2018-Jun-06 15:31N 48°33' W 004°49'4 8.6
2018-Jun-06 15:00N 48°28' W 004°50'4 8.5
2018-Jun-06 14:30N 48°24' W 004°49'4 8.1
2018-Jun-06 14:01N 48°20' W 004°48'4 8.5
2018-Jun-06 13:31N 48°19' W 004°42'510.0
2018-Jun-06 13:00N 48°21' W 004°35'4 8.2
2018-Jun-06 12:31N 48°22' W 004°29'0 1.0
2018-Jun-06 12:01N 48°23' W 004°29'0 0.0
2018-Jun-06 11:30N 48°23' W 004°29'0 0.0
2018-Jun-06 11:01N 48°23' W 004°29'0 0.0
2018-Jun-06 10:30N 48°23' W 004°29'0 0.0
2018-Jun-06 10:01N 48°23' W 004°29'0 0.0
2018-Jun-06 09:30N 48°23' W 004°29'0 0.0
2018-Jun-06 09:00N 48°23' W 004°29'0 0.0
2018-Jun-06 08:30N 48°23' W 004°29'0 0.0
2018-Jun-06 08:00N 48°23' W 004°29'0 0.0
2018-Jun-06 07:31N 48°23' W 004°29'  

Dump ship's entire track history